CheckWX is a tool to help pilots better visualize weather data.  It is not intended as a substitute for an official pre-flight weather briefing.

12:21:59 UTC

LFRZ TAF
Saint-Nazaire-Montoir Airport
Saint-Nazaire/Montoir, France
TAF LFRZ 221100Z 2212/2312 04004KT CAVOK PROB30 TEMPO 2303/2308 0500 FG VV///

Mar-22@
12:00 UTC

Mar-22 @ 12:00 UTC

Mar-23@
12:00 UTC

Mar-23 @ 12:00 UTC

TAF LFRZ 221100Z 2212/2312 04004KT CAVOK
Wind
  • 040° at 4 KTS
Conditions
No significant weather
Cloud Levels
  • No significant clouds

Mar-23@
03:00 UTC

Mar-23 @ 03:00 UTC

Mar-23@
08:00 UTC

Mar-23 @ 08:00 UTC

PROB30 TEMPO 2303/2308 0500 FG VV///

Temporary - 30% Likelihood

Temporary - 30% Likelihood during this time.

Conditions
Fog